Time;durP1;ratioP1;P1;durP2;ratioP2;P2;SDS_P1;SDS_P2;PMS_P1;PMS_P2;Temp;Humidity;BMP_temperature;BMP_pressure;BME280_temperature;BME280_humidity;BME280_pressure;Samples;Min_cycle;Max_cycle;Signal;HPM_P1;HPM_P2
2022/01/11 00:01:28;;;;;;;14.73;7.80;;;;;3.80;97266.00;;;;8320446;28;20242;-70
2022/01/11 00:05:34;;;;;;;20.40;7.87;;;;;3.80;97277.00;;;;8319898;28;20293;-69
2022/01/11 00:09:41;;;;;;;19.20;8.07;;;;;3.80;97284.00;;;;8318113;28;20240;-71
2022/01/11 00:13:44;;;;;;;15.27;7.50;;;;;3.80;97287.00;;;;8320989;28;20685;-68
2022/01/11 00:17:48;;;;;;;14.37;6.87;;;;;3.90;97288.00;;;;8314936;28;20275;-69
2022/01/11 00:21:51;;;;;;;16.67;6.57;;;;;3.90;97295.00;;;;8317824;28;20681;-70
2022/01/11 00:25:58;;;;;;;13.50;6.60;;;;;3.90;97298.00;;;;8320035;28;20255;-71
2022/01/11 00:30:07;;;;;;;20.37;7.87;;;;;3.90;97296.00;;;;8319985;28;20336;-69
2022/01/11 00:34:10;;;;;;;16.63;7.17;;;;;3.90;97304.00;;;;8312851;28;20551;-71
2022/01/11 00:38:16;;;;;;;16.70;7.10;;;;;3.90;97314.00;;;;8307622;28;20261;-69
2022/01/11 00:42:22;;;;;;;13.83;7.47;;;;;3.90;97316.00;;;;8304464;28;20291;-69
2022/01/11 00:46:25;;;;;;;15.53;7.17;;;;;3.90;97320.00;;;;8319125;28;20645;-71
2022/01/11 00:50:30;;;;;;;18.93;8.93;;;;;3.90;97316.00;;;;8319325;28;20716;-69
2022/01/11 00:54:33;;;;;;;12.93;7.30;;;;;3.80;97323.00;;;;8319628;28;20319;-69
2022/01/11 00:58:38;;;;;;;15.07;7.27;;;;;3.80;97318.00;;;;8315841;28;20260;-71
2022/01/11 01:02:41;;;;;;;17.23;7.27;;;;;3.80;97319.00;;;;8319838;28;20317;-73
2022/01/11 01:06:45;;;;;;;18.27;6.43;;;;;3.80;97330.00;;;;8315933;28;20239;-72
2022/01/11 01:10:50;;;;;;;15.43;7.17;;;;;3.80;97326.00;;;;8309119;28;20240;-73
2022/01/11 01:14:54;;;;;;;12.90;6.90;;;;;3.80;97335.00;;;;8318017;28;20252;-71
2022/01/11 01:18:57;;;;;;;16.23;6.87;;;;;3.70;97327.00;;;;8314025;28;20640;-70
2022/01/11 01:23:01;;;;;;;18.47;7.70;;;;;3.80;97340.00;;;;8318772;28;20262;-69
2022/01/11 01:27:05;;;;;;;13.47;6.77;;;;;3.70;97338.00;;;;8319977;28;20248;-70
2022/01/11 01:31:10;;;;;;;15.53;7.63;;;;;3.80;97341.00;;;;8318722;28;20381;-70
2022/01/11 01:35:13;;;;;;;13.57;7.27;;;;;3.70;97343.00;;;;8318107;28;20647;-71
2022/01/11 01:39:16;;;;;;;18.47;7.50;;;;;3.80;97345.00;;;;8317786;28;20228;-70
2022/01/11 01:43:20;;;;;;;14.93;7.27;;;;;3.80;97354.00;;;;8318006;28;20326;-74
2022/01/11 01:47:25;;;;;;;15.90;6.60;;;;;3.80;97351.00;;;;8318816;28;21194;-70
2022/01/11 01:51:28;;;;;;;16.20;6.87;;;;;3.80;97351.00;;;;8318882;28;20248;-73
2022/01/11 01:55:32;;;;;;;17.87;7.13;;;;;3.80;97352.00;;;;8318327;28;20633;-70
2022/01/11 01:59:35;;;;;;;17.90;7.47;;;;;3.80;97341.00;;;;8317789;28;20294;-72
2022/01/11 02:03:41;;;;;;;14.57;7.20;;;;;3.80;97343.00;;;;8318267;28;20272;-68
2022/01/11 02:07:44;;;;;;;14.73;7.37;;;;;3.70;97350.00;;;;8307637;28;20255;-72
2022/01/11 02:11:48;;;;;;;19.43;7.30;;;;;3.70;97354.00;;;;8298445;28;20307;-69
2022/01/11 02:15:52;;;;;;;15.40;7.77;;;;;3.70;97350.00;;;;8302805;28;20265;-71
2022/01/11 02:19:57;;;;;;;19.10;7.73;;;;;3.70;97348.00;;;;8308353;28;20252;-72
2022/01/11 02:24:02;;;;;;;16.80;7.60;;;;;3.70;97354.00;;;;8317097;28;20260;-69
2022/01/11 02:28:13;;;;;;;15.47;7.63;;;;;3.70;97356.00;;;;8315941;28;20753;-73
2022/01/11 02:32:16;;;;;;;17.97;7.77;;;;;3.60;97350.00;;;;8317781;28;20256;-71
2022/01/11 02:36:21;;;;;;;14.67;6.40;;;;;3.60;97355.00;;;;8315694;28;20228;-70
2022/01/11 02:40:26;;;;;;;12.63;6.40;;;;;3.60;97353.00;;;;8312120;28;20251;-71
2022/01/11 02:44:29;;;;;;;13.67;6.00;;;;;3.60;97353.00;;;;8298483;28;20328;-70
2022/01/11 02:48:33;;;;;;;16.30;6.60;;;;;3.60;97353.00;;;;8306101;28;20363;-69
2022/01/11 02:52:36;;;;;;;15.27;6.30;;;;;3.60;97354.00;;;;8314266;28;20654;-71
2022/01/11 02:56:41;;;;;;;15.77;6.90;;;;;3.70;97359.00;;;;8299674;28;21009;-71
2022/01/11 03:00:44;;;;;;;11.50;6.67;;;;;3.60;97361.00;;;;8309902;28;20257;-72
2022/01/11 03:04:47;;;;;;;13.27;6.50;;;;;3.60;97363.00;;;;8340813;23;20258;-70
2022/01/11 03:08:51;;;;;;;15.50;6.57;;;;;3.60;97370.00;;;;8290716;28;20316;-71
2022/01/11 03:12:55;;;;;;;14.27;5.57;;;;;3.60;97367.00;;;;8309113;28;20323;-69
2022/01/11 03:16:59;;;;;;;19.73;6.63;;;;;3.60;97379.00;;;;8315609;28;20256;-70
2022/01/11 03:21:02;;;;;;;16.93;6.33;;;;;3.60;97373.00;;;;8315096;28;20235;-75
2022/01/11 03:25:07;;;;;;;16.87;6.90;;;;;3.60;97380.00;;;;8308373;28;20244;-70
2022/01/11 03:29:11;;;;;;;18.47;7.60;;;;;3.60;97378.00;;;;8315798;28;20703;-69
2022/01/11 03:33:15;;;;;;;15.60;6.87;;;;;3.60;97377.00;;;;8312855;28;20282;-70
2022/01/11 03:37:20;;;;;;;12.67;6.27;;;;;3.60;97380.00;;;;8321573;28;20315;-69
2022/01/11 03:41:23;;;;;;;13.37;6.73;;;;;3.60;97389.00;;;;8320287;28;20310;-69
2022/01/11 03:45:28;;;;;;;15.10;6.90;;;;;3.50;97372.00;;;;8322238;28;20250;-70
2022/01/11 03:49:32;;;;;;;14.87;6.90;;;;;3.60;97383.00;;;;8321173;28;20309;-73
2022/01/11 03:53:49;;;;;;;13.27;6.23;;;;;3.60;97375.00;;;;8321072;28;20343;-70
2022/01/11 03:57:52;;;;;;;11.47;6.23;;;;;3.60;97381.00;;;;8317051;28;20247;-70
2022/01/11 04:01:56;;;;;;;12.03;6.57;;;;;3.60;97385.00;;;;8319844;28;20267;-71
2022/01/11 04:06:00;;;;;;;13.97;6.10;;;;;3.60;97382.00;;;;8323232;28;20283;-68
2022/01/11 04:10:04;;;;;;;14.83;6.83;;;;;3.60;97384.00;;;;8314874;28;20258;-69
2022/01/11 04:14:07;;;;;;;15.30;6.70;;;;;3.60;97383.00;;;;8317768;28;20318;-70
2022/01/11 04:18:12;;;;;;;12.33;6.47;;;;;3.60;97394.00;;;;8319695;28;20248;-71
2022/01/11 04:22:15;;;;;;;13.43;6.40;;;;;3.60;97388.00;;;;8319130;28;20321;-71
2022/01/11 04:26:18;;;;;;;11.30;6.20;;;;;3.60;97383.00;;;;8319325;28;20350;-71
2022/01/11 04:30:21;;;;;;;15.43;6.60;;;;;3.60;97396.00;;;;8319828;28;20249;-70
2022/01/11 04:34:27;;;;;;;13.43;6.77;;;;;3.60;97391.00;;;;8320308;28;20862;-71
2022/01/11 04:38:32;;;;;;;15.60;6.80;;;;;3.60;97397.00;;;;8319495;28;20227;-70
2022/01/11 04:42:35;;;;;;;15.03;7.10;;;;;3.60;97403.00;;;;8315446;28;20285;-68
2022/01/11 04:46:38;;;;;;;15.57;6.90;;;;;3.60;97400.00;;;;8316240;28;20266;-72
2022/01/11 04:50:45;;;;;;;16.10;6.73;;;;;3.60;97404.00;;;;8321283;28;20716;-73
2022/01/11 04:54:48;;;;;;;15.13;6.77;;;;;3.50;97395.00;;;;8320011;28;21091;-70
2022/01/11 04:59:11;;;;;;;19.63;7.67;;;;;3.50;97400.00;;;;8317382;28;20235;-69
2022/01/11 05:03:14;;;;;;;14.03;6.67;;;;;3.50;97401.00;;;;8318613;28;20262;-70
2022/01/11 05:07:19;;;;;;;14.20;7.60;;;;;3.40;97403.00;;;;8308501;28;20946;-68
2022/01/11 05:11:23;;;;;;;15.27;6.97;;;;;3.40;97404.00;;;;8313190;28;20327;-71
2022/01/11 05:15:28;;;;;;;17.27;7.60;;;;;3.40;97400.00;;;;8313872;28;20646;-69
2022/01/11 05:19:32;;;;;;;33.20;15.80;;;;;3.40;97407.00;;;;8315048;28;20304;-69
2022/01/11 05:23:37;;;;;;;27.57;13.13;;;;;3.40;97419.00;;;;8309580;28;20297;-71
2022/01/11 05:27:40;;;;;;;15.73;7.03;;;;;3.40;97422.00;;;;8317227;28;20642;-71
2022/01/11 05:31:44;;;;;;;16.63;8.63;;;;;3.40;97426.00;;;;8315451;28;20638;-71
2022/01/11 05:35:47;;;;;;;17.17;7.73;;;;;3.40;97422.00;;;;8317268;28;20327;-73
2022/01/11 05:39:53;;;;;;;19.03;8.70;;;;;3.40;97421.00;;;;8307381;28;20245;-71
2022/01/11 05:43:56;;;;;;;19.43;7.90;;;;;3.40;97431.00;;;;8318004;28;20754;-69
2022/01/11 05:48:02;;;;;;;18.63;8.40;;;;;3.40;97432.00;;;;8315252;28;20242;-73
2022/01/11 05:52:06;;;;;;;19.77;8.47;;;;;3.40;97432.00;;;;8310688;28;20267;-72
2022/01/11 05:56:10;;;;;;;15.13;7.70;;;;;3.30;97431.00;;;;8322092;28;20226;-70
2022/01/11 06:00:16;;;;;;;17.47;7.97;;;;;3.40;97436.00;;;;8313928;28;20740;-72
2022/01/11 06:04:19;;;;;;;14.97;7.27;;;;;3.30;97452.00;;;;8313576;28;20224;-69
2022/01/11 06:08:22;;;;;;;17.63;7.97;;;;;3.40;97456.00;;;;8314045;28;20335;-69
2022/01/11 06:12:31;;;;;;;16.90;7.03;;;;;3.30;97460.00;;;;8299581;28;20355;-69
2022/01/11 06:16:37;;;;;;;17.23;8.13;;;;;3.30;97467.00;;;;8311084;28;20349;-70
2022/01/11 06:20:40;;;;;;;18.27;8.63;;;;;3.30;97479.00;;;;8323112;28;20778;-69
2022/01/11 06:24:43;;;;;;;17.33;8.17;;;;;3.30;97480.00;;;;8327986;28;20227;-68
2022/01/11 06:28:48;;;;;;;16.67;8.10;;;;;3.30;97488.00;;;;8338573;28;20385;-70
2022/01/11 06:32:51;;;;;;;19.33;7.77;;;;;3.30;97491.00;;;;8336379;28;20358;-70
2022/01/11 06:36:59;;;;;;;18.23;7.67;;;;;3.30;97495.00;;;;8344232;28;20311;-72
2022/01/11 06:41:03;;;;;;;14.73;7.63;;;;;3.30;97495.00;;;;8336048;28;20236;-70
2022/01/11 06:45:08;;;;;;;19.10;8.47;;;;;3.30;97503.00;;;;8340952;28;20302;-71
2022/01/11 06:49:11;;;;;;;20.63;7.47;;;;;3.30;97515.00;;;;8342301;28;20872;-73
2022/01/11 06:53:15;;;;;;;16.97;8.67;;;;;3.30;97515.00;;;;8335008;28;20318;-69
2022/01/11 06:57:18;;;;;;;15.40;7.53;;;;;3.20;97523.00;;;;8344186;28;20261;-70
2022/01/11 07:01:22;;;;;;;18.67;8.13;;;;;3.20;97519.00;;;;8337464;28;20333;-72
2022/01/11 07:05:26;;;;;;;18.67;8.40;;;;;3.20;97521.00;;;;8342202;28;20238;-73
2022/01/11 07:09:29;;;;;;;17.57;8.30;;;;;3.10;97527.00;;;;8336320;28;20243;-69
2022/01/11 07:13:33;;;;;;;17.97;7.70;;;;;3.10;97526.00;;;;8341716;28;20298;-69
2022/01/11 07:17:38;;;;;;;15.77;8.17;;;;;3.10;97529.00;;;;8338684;28;20239;-71
2022/01/11 07:21:41;;;;;;;19.10;8.30;;;;;3.10;97544.00;;;;8345201;28;22108;-70
2022/01/11 07:25:44;;;;;;;16.73;7.30;;;;;3.20;97551.00;;;;8337713;28;20311;-68
2022/01/11 07:29:48;;;;;;;17.10;7.93;;;;;3.20;97556.00;;;;8341288;28;20315;-70
2022/01/11 07:33:52;;;;;;;16.40;7.70;;;;;3.30;97554.00;;;;8339638;28;20305;-71
2022/01/11 07:37:55;;;;;;;17.63;7.40;;;;;3.30;97563.00;;;;8345282;28;21098;-70
2022/01/11 07:41:59;;;;;;;13.60;7.30;;;;;3.30;97563.00;;;;8342999;28;20339;-68
2022/01/11 07:46:02;;;;;;;17.30;7.27;;;;;3.30;97558.00;;;;8342708;28;20236;-68
2022/01/11 07:50:07;;;;;;;17.83;7.60;;;;;3.30;97571.00;;;;8336972;28;20285;-68
2022/01/11 07:54:11;;;;;;;13.73;7.00;;;;;3.30;97576.00;;;;8344365;28;20251;-72
2022/01/11 07:58:15;;;;;;;15.73;6.97;;;;;3.40;97570.00;;;;8342892;28;20325;-68
2022/01/11 08:02:18;;;;;;;15.80;6.77;;;;;3.40;97589.00;;;;8340013;28;20337;-72
2022/01/11 08:06:23;;;;;;;12.87;6.57;;;;;3.50;97583.00;;;;8335288;28;20223;-69
2022/01/11 08:10:26;;;;;;;14.23;6.13;;;;;3.50;97585.00;;;;8339177;28;20234;-70
2022/01/11 08:14:30;;;;;;;12.33;6.00;;;;;3.50;97598.00;;;;8340377;28;20248;-71
2022/01/11 08:18:33;;;;;;;12.90;6.50;;;;;3.60;97597.00;;;;8349320;28;20253;-70
2022/01/11 08:22:38;;;;;;;15.07;6.90;;;;;3.60;97609.00;;;;8349536;28;20254;-72
2022/01/11 08:26:41;;;;;;;12.57;6.10;;;;;3.60;97592.00;;;;8340471;28;20670;-71
2022/01/11 08:30:44;;;;;;;13.50;6.97;;;;;3.60;97597.00;;;;8345831;28;20267;-69
2022/01/11 08:34:48;;;;;;;11.40;6.27;;;;;3.70;97599.00;;;;8338746;28;20310;-71
2022/01/11 08:38:52;;;;;;;13.57;6.70;;;;;3.70;97611.00;;;;8337814;28;20318;-72
2022/01/11 08:42:56;;;;;;;12.70;6.03;;;;;3.70;97607.00;;;;8344724;28;20367;-70
2022/01/11 08:46:59;;;;;;;12.47;6.67;;;;;3.70;97603.00;;;;8345078;28;20231;-71
2022/01/11 08:51:03;;;;;;;13.77;6.40;;;;;3.80;97611.00;;;;8330956;28;20228;-69
2022/01/11 08:55:11;;;;;;;10.93;6.23;;;;;3.90;97604.00;;;;8349423;28;20252;-69
2022/01/11 08:59:14;;;;;;;11.50;6.47;;;;;4.00;97605.00;;;;8346440;28;20247;-72
2022/01/11 09:03:18;;;;;;;10.73;5.90;;;;;4.10;97608.00;;;;8334266;28;20231;-69
2022/01/11 09:07:21;;;;;;;12.40;6.83;;;;;4.20;97610.00;;;;8349367;28;20251;-69
2022/01/11 09:11:26;;;;;;;10.30;6.27;;;;;4.20;97618.00;;;;8344172;28;20262;-70
2022/01/11 09:15:29;;;;;;;13.60;6.87;;;;;4.30;97619.00;;;;8344024;28;20307;-73
2022/01/11 09:19:33;;;;;;;12.37;6.60;;;;;4.40;97616.00;;;;8346656;28;20224;-69
2022/01/11 09:23:38;;;;;;;9.60;5.70;;;;;4.60;97620.00;;;;8337947;28;20271;-73
2022/01/11 09:27:43;;;;;;;8.87;5.87;;;;;4.70;97631.00;;;;8344992;28;20271;-70
2022/01/11 09:31:46;;;;;;;11.57;6.00;;;;;4.80;97636.00;;;;8348816;28;20260;-70
2022/01/11 09:35:49;;;;;;;12.70;6.50;;;;;4.90;97633.00;;;;8338733;28;20307;-72
2022/01/11 09:39:52;;;;;;;10.43;5.87;;;;;4.90;97632.00;;;;8340269;28;20338;-71
2022/01/11 09:43:59;;;;;;;8.43;5.97;;;;;4.90;97630.00;;;;8347314;28;20303;-73
2022/01/11 09:48:02;;;;;;;8.17;5.37;;;;;4.90;97632.00;;;;8346856;28;21049;-71
2022/01/11 09:52:07;;;;;;;5.37;4.20;;;;;4.90;97626.00;;;;8337833;28;20937;-74
2022/01/11 09:56:12;;;;;;;7.50;4.47;;;;;4.70;97616.00;;;;8338727;28;20261;-70
2022/01/11 10:00:17;;;;;;;7.80;5.40;;;;;4.70;97627.00;;;;8336943;28;20343;-70
2022/01/11 10:04:26;;;;;;;6.00;4.23;;;;;4.80;97625.00;;;;8349128;28;20251;-73
2022/01/11 10:08:31;;;;;;;9.13;5.17;;;;;5.00;97625.00;;;;8339893;28;20311;-71
2022/01/11 10:12:42;;;;;;;6.93;4.40;;;;;5.20;97626.00;;;;8340201;28;20331;-71
2022/01/11 10:16:48;;;;;;;7.00;5.00;;;;;5.20;97629.00;;;;8342356;28;20252;-69
2022/01/11 10:20:51;;;;;;;6.30;4.30;;;;;5.20;97630.00;;;;8336238;28;20305;-71
2022/01/11 10:24:55;;;;;;;7.80;4.63;;;;;5.20;97635.00;;;;8340554;28;20248;-77
2022/01/11 10:28:59;;;;;;;7.47;5.00;;;;;5.20;97638.00;;;;8337271;28;20269;-74
2022/01/11 10:33:08;;;;;;;7.03;4.63;;;;;5.30;97654.00;;;;8339937;28;20220;-73
2022/01/11 10:37:11;;;;;;;7.37;4.10;;;;;5.30;97643.00;;;;8337129;28;20274;-73
2022/01/11 10:41:44;;;;;;;4.47;3.20;;;;;5.10;97639.00;;;;8330326;28;20315;-73
2022/01/11 10:45:51;;;;;;;4.73;3.07;;;;;5.00;97650.00;;;;8335923;28;20250;-71
2022/01/11 10:49:59;;;;;;;5.87;3.60;;;;;5.00;97648.00;;;;8339791;28;20297;-71
2022/01/11 10:54:02;;;;;;;4.73;3.00;;;;;4.90;97641.00;;;;8341714;28;20279;-68
2022/01/11 10:58:08;;;;;;;6.60;4.17;;;;;4.90;97646.00;;;;8339880;28;20240;-70
2022/01/11 11:02:25;;;;;;;2.87;2.50;;;;;5.00;97647.00;;;;8336034;28;20235;-69
2022/01/11 11:06:30;;;;;;;3.27;2.67;;;;;5.10;97645.00;;;;8337713;28;20321;-69
2022/01/11 11:10:41;;;;;;;3.67;2.90;;;;;5.10;97653.00;;;;8343128;28;20787;-68
2022/01/11 11:14:55;;;;;;;4.10;2.90;;;;;5.10;97655.00;;;;8337169;28;20330;-70
2022/01/11 11:19:00;;;;;;;3.87;2.83;;;;;5.00;97646.00;;;;8338384;28;20669;-69
2022/01/11 11:23:06;;;;;;;2.77;2.43;;;;;4.90;97653.00;;;;8342156;28;20870;-72
2022/01/11 11:27:09;;;;;;;3.43;2.70;;;;;4.90;97651.00;;;;8340147;28;20255;-68
2022/01/11 11:31:12;;;;;;;4.37;2.97;;;;;4.80;97644.00;;;;8335003;28;20330;-68
2022/01/11 11:35:16;;;;;;;3.33;2.70;;;;;4.60;97653.00;;;;8342085;28;20672;-70
2022/01/11 11:39:23;;;;;;;3.77;2.60;;;;;4.30;97657.00;;;;8326479;28;20252;-68
2022/01/11 11:43:26;;;;;;;3.13;2.50;;;;;4.20;97653.00;;;;8336694;28;20254;-70
2022/01/11 11:47:35;;;;;;;3.20;2.67;;;;;4.10;97649.00;;;;8332204;28;20227;-69
2022/01/11 11:51:39;;;;;;;3.77;3.00;;;;;4.20;97644.00;;;;8336607;28;20262;-70
2022/01/11 11:55:44;;;;;;;4.50;2.97;;;;;4.20;97647.00;;;;8342877;28;20234;-69
2022/01/11 11:59:52;;;;;;;3.03;2.73;;;;;4.00;97645.00;;;;8348753;28;20225;-71
2022/01/11 12:03:55;;;;;;;5.73;3.73;;;;;4.00;97650.00;;;;8336923;28;20822;-68
2022/01/11 12:07:59;;;;;;;6.00;3.77;;;;;3.90;97642.00;;;;8343190;28;20309;-69
2022/01/11 12:12:05;;;;;;;6.80;3.87;;;;;3.80;97640.00;;;;8337784;28;20628;-72
2022/01/11 12:16:42;;;;;;;7.87;5.17;;;;;3.90;97647.00;;;;8346104;28;20269;-70
2022/01/11 12:20:52;;;;;;;7.37;3.47;;;;;4.40;97644.00;;;;8341685;28;20232;-68
2022/01/11 12:24:57;;;;;;;5.10;3.73;;;;;4.90;97636.00;;;;8334225;28;20309;-69
2022/01/11 12:29:28;;;;;;;7.47;4.20;;;;;4.80;97622.00;;;;8342666;28;20286;-68
2022/01/11 12:33:48;;;;;;;5.47;3.60;;;;;4.80;97624.00;;;;8336604;28;20358;-68
2022/01/11 12:38:06;;;;;;;5.70;3.93;;;;;4.90;97639.00;;;;8351605;28;20656;-68
2022/01/11 12:42:26;;;;;;;4.47;3.17;;;;;5.00;97636.00;;;;8343084;28;20468;-66
2022/01/11 12:46:49;;;;;;;4.67;3.40;;;;;4.90;97636.00;;;;8334752;28;20220;-70
2022/01/11 12:50:57;;;;;;;4.80;3.03;;;;;4.90;97645.00;;;;8342126;28;20257;-67
2022/01/11 12:55:00;;;;;;;5.07;3.90;;;;;4.80;97634.00;;;;8341321;28;20243;-67
2022/01/11 12:59:04;;;;;;;5.33;3.67;;;;;4.80;97630.00;;;;8338762;28;20256;-70
2022/01/11 13:03:08;;;;;;;4.37;3.27;;;;;4.90;97636.00;;;;8337351;28;20492;-68
2022/01/11 13:07:17;;;;;;;5.50;4.47;;;;;4.70;97641.00;;;;8347283;28;20303;-69
2022/01/11 13:11:20;;;;;;;6.40;4.13;;;;;4.70;97639.00;;;;8334165;28;20633;-71
2022/01/11 13:15:32;;;;;;;4.53;3.40;;;;;4.70;97647.00;;;;8332858;28;20307;-68
2022/01/11 13:19:41;;;;;;;5.27;3.87;;;;;4.50;97642.00;;;;8341972;28;20324;-69
2022/01/11 13:23:46;;;;;;;4.03;3.60;;;;;4.50;97640.00;;;;8348087;28;20323;-72
2022/01/11 13:27:53;;;;;;;5.30;3.50;;;;;4.50;97636.00;;;;8340943;28;20306;-67
2022/01/11 13:31:57;;;;;;;5.03;3.50;;;;;4.50;97632.00;;;;8348179;28;20714;-69
2022/01/11 13:36:12;;;;;;;4.67;3.27;;;;;4.40;97633.00;;;;8343470;28;20225;-72
2022/01/11 13:40:16;;;;;;;6.13;3.40;;;;;4.30;97638.00;;;;8348301;28;20254;-70
2022/01/11 13:44:21;;;;;;;7.50;4.30;;;;;4.10;97635.00;;;;8339876;28;20319;-67
2022/01/11 13:48:24;;;;;;;3.83;3.40;;;;;4.10;97644.00;;;;8348645;28;21047;-71
2022/01/11 13:52:29;;;;;;;10.90;5.23;;;;;4.00;97648.00;;;;8343241;28;20773;-71
2022/01/11 13:56:35;;;;;;;8.67;5.63;;;;;4.10;97650.00;;;;8336100;28;20310;-68
2022/01/11 14:00:38;;;;;;;7.93;5.50;;;;;3.90;97645.00;;;;8337021;28;20259;-69
2022/01/11 14:04:45;;;;;;;7.13;4.70;;;;;3.90;97638.00;;;;8347172;28;20228;-73
2022/01/11 14:08:54;;;;;;;10.10;4.90;;;;;3.80;97650.00;;;;8343722;28;20250;-71
2022/01/11 14:12:58;;;;;;;8.77;5.13;;;;;3.70;97646.00;;;;8348564;28;20224;-69
2022/01/11 14:17:13;;;;;;;7.70;4.37;;;;;3.70;97656.00;;;;8348163;28;20255;-66
2022/01/11 14:21:17;;;;;;;6.70;4.30;;;;;3.60;97651.00;;;;8342959;28;20238;-69
2022/01/11 14:25:24;;;;;;;7.33;4.93;;;;;3.50;97655.00;;;;8342378;28;20260;-73
2022/01/11 14:29:27;;;;;;;9.43;5.40;;;;;3.40;97650.00;;;;8346395;28;20223;-73
2022/01/11 14:33:34;;;;;;;8.20;5.23;;;;;3.20;97655.00;;;;8340889;28;20314;-69
2022/01/11 14:37:37;;;;;;;8.77;5.47;;;;;3.10;97649.00;;;;8339468;28;20250;-69
2022/01/11 14:42:03;;;;;;;9.43;5.40;;;;;2.90;97655.00;;;;8347026;28;20282;-72
2022/01/11 14:46:15;;;;;;;9.60;6.00;;;;;2.70;97648.00;;;;8345973;28;20320;-73
2022/01/11 14:50:23;;;;;;;10.47;5.97;;;;;2.60;97648.00;;;;8348183;28;20305;-70
2022/01/11 14:54:28;;;;;;;10.50;6.47;;;;;2.50;97646.00;;;;8346076;28;20321;-71
2022/01/11 14:58:37;;;;;;;12.67;6.97;;;;;2.30;97668.00;;;;8342775;28;20243;-73
2022/01/11 15:02:42;;;;;;;14.63;7.30;;;;;2.20;97669.00;;;;8347680;28;20833;-73
2022/01/11 15:06:47;;;;;;;11.37;7.20;;;;;2.00;97670.00;;;;8342766;28;20254;-67
2022/01/11 15:10:50;;;;;;;11.47;6.50;;;;;2.00;97674.00;;;;8339782;28;20317;-67
2022/01/11 15:14:57;;;;;;;17.03;8.27;;;;;1.80;97673.00;;;;8348443;28;20707;-67
2022/01/11 15:19:01;;;;;;;15.17;7.77;;;;;1.70;97676.00;;;;8349023;28;22323;-70
2022/01/11 15:23:04;;;;;;;13.73;7.97;;;;;1.60;97675.00;;;;8348357;28;20268;-67
2022/01/11 15:27:07;;;;;;;12.53;7.30;;;;;1.50;97680.00;;;;8353361;28;20269;-68
2022/01/11 15:31:12;;;;;;;12.90;7.37;;;;;1.40;97694.00;;;;8359619;28;20330;-69
2022/01/11 15:35:15;;;;;;;17.47;8.50;;;;;1.20;97693.00;;;;8359294;28;20229;-67
2022/01/11 15:39:21;;;;;;;15.07;9.00;;;;;1.10;97694.00;;;;8351456;28;20256;-67
2022/01/11 15:43:25;;;;;;;23.87;10.43;;;;;1.00;97693.00;;;;8357920;28;20248;-70
2022/01/11 15:47:30;;;;;;;18.80;9.47;;;;;0.80;97700.00;;;;8358067;28;20751;-67
2022/01/11 15:51:34;;;;;;;13.87;7.80;;;;;0.70;97706.00;;;;8359140;28;20328;-69
2022/01/11 15:55:41;;;;;;;15.87;7.90;;;;;0.50;97708.00;;;;8337182;28;20326;-70
2022/01/11 15:59:44;;;;;;;19.03;8.03;;;;;0.30;97710.00;;;;8355849;28;20234;-68
2022/01/11 16:03:50;;;;;;;14.63;7.93;;;;;0.00;97708.00;;;;8359819;28;20319;-67
2022/01/11 16:07:54;;;;;;;14.00;7.43;;;;;-0.20;97695.00;;;;8346732;28;20335;-69
2022/01/11 16:13:25;;;;;;;17.77;7.67;;;;;-0.60;97695.00;;;;8448053;27;20315;-69
2022/01/11 16:17:29;;;;;;;14.87;8.17;;;;;-0.80;97696.00;;;;8437377;28;20242;-70
2022/01/11 16:21:32;;;;;;;18.57;7.67;;;;;-0.90;97690.00;;;;8436692;28;20257;-73
2022/01/11 16:25:35;;;;;;;19.33;8.77;;;;;-1.10;97698.00;;;;8441146;28;20670;-70
2022/01/11 16:29:40;;;;;;;16.80;9.17;;;;;-1.20;97690.00;;;;8443331;27;20333;-80
2022/01/11 16:33:43;;;;;;;20.97;8.87;;;;;-1.20;97695.00;;;;8452847;27;20236;-71
2022/01/11 16:37:48;;;;;;;21.97;10.13;;;;;-1.30;97692.00;;;;8446642;28;20947;-68
2022/01/11 16:46:14;;;;;;;19.77;9.87;;;;;-1.40;97700.00;;;;8433513;27;20711;-69
2022/01/11 16:50:17;;;;;;;21.70;9.60;;;;;-1.50;97706.00;;;;8439617;27;20222;-75
2022/01/11 16:54:20;;;;;;;19.83;8.43;;;;;-1.50;97703.00;;;;8453851;27;20237;-68
2022/01/11 16:58:24;;;;;;;18.27;8.87;;;;;-1.60;97703.00;;;;8444666;28;20214;-70
2022/01/11 17:02:28;;;;;;;19.07;8.93;;;;;-1.70;97705.00;;;;8453525;27;20329;-76
2022/01/11 17:06:32;;;;;;;15.47;7.53;;;;;-1.80;97718.00;;;;8472676;27;20232;-72
2022/01/11 17:10:35;;;;;;;18.23;9.07;;;;;-1.80;97715.00;;;;8473532;27;20225;-70
2022/01/11 17:14:38;;;;;;;20.43;9.40;;;;;-1.80;97723.00;;;;8477870;27;20317;-70
2022/01/11 17:18:43;;;;;;;21.37;10.17;;;;;-1.70;97723.00;;;;8480940;27;20574;-72
2022/01/11 17:22:46;;;;;;;23.50;11.53;;;;;-1.50;97719.00;;;;8463388;27;20317;-68
2022/01/11 17:26:50;;;;;;;18.30;9.87;;;;;-1.50;97721.00;;;;8455730;27;20299;-66
2022/01/11 17:30:53;;;;;;;21.23;9.43;;;;;-1.50;97739.00;;;;8455169;27;20243;-68
2022/01/11 17:34:58;;;;;;;22.97;10.43;;;;;-1.50;97730.00;;;;8446418;27;20227;-68
2022/01/11 17:39:01;;;;;;;22.27;10.00;;;;;-1.60;97746.00;;;;8446185;27;20301;-69
2022/01/11 17:43:04;;;;;;;26.00;10.90;;;;;-1.80;97748.00;;;;8450321;27;20296;-69
2022/01/11 17:47:08;;;;;;;25.17;11.43;;;;;-1.70;97755.00;;;;8446300;27;20695;-70
2022/01/11 17:51:12;;;;;;;29.20;11.40;;;;;-1.60;97755.00;;;;8448090;27;20257;-73
2022/01/11 17:55:18;;;;;;;22.53;10.97;;;;;-1.50;97777.00;;;;8446340;27;20313;-71
2022/01/11 17:59:21;;;;;;;22.07;11.33;;;;;-1.30;97785.00;;;;8442334;27;20258;-71
2022/01/11 18:03:27;;;;;;;25.07;10.70;;;;;-1.20;97785.00;;;;8446864;27;20336;-69
2022/01/11 18:07:32;;;;;;;21.77;10.20;;;;;-1.10;97790.00;;;;8452274;27;20234;-73
2022/01/11 18:11:35;;;;;;;24.90;11.73;;;;;-0.90;97795.00;;;;8457653;27;20313;-76
2022/01/11 18:15:38;;;;;;;23.77;11.13;;;;;-0.70;97792.00;;;;8452940;27;20273;-78
2022/01/11 18:19:41;;;;;;;24.23;11.20;;;;;-0.50;97794.00;;;;8451014;27;20895;-76
2022/01/11 18:23:47;;;;;;;27.77;12.87;;;;;-0.30;97789.00;;;;8452009;27;20259;-75
2022/01/11 18:27:54;;;;;;;29.27;14.23;;;;;0.00;97809.00;;;;8446618;27;25974;-77
2022/01/11 18:31:58;;;;;;;26.63;13.60;;;;;0.20;97805.00;;;;8452398;27;20989;-75
2022/01/11 18:36:02;;;;;;;23.63;12.10;;;;;0.20;97816.00;;;;8445337;28;20410;-73
2022/01/11 18:40:08;;;;;;;32.47;14.60;;;;;0.30;97818.00;;;;8450159;27;20690;-72
2022/01/11 18:44:12;;;;;;;29.60;13.50;;;;;0.50;97823.00;;;;8442473;28;20239;-73
2022/01/11 18:48:15;;;;;;;29.43;12.47;;;;;0.60;97820.00;;;;8448093;27;20308;-73
2022/01/11 18:52:20;;;;;;;27.17;12.40;;;;;0.70;97831.00;;;;8420510;27;20681;-73
2022/01/11 18:56:25;;;;;;;22.60;12.50;;;;;0.80;97832.00;;;;8423435;27;20238;-72
2022/01/11 19:00:48;;;;;;;26.13;13.63;;;;;0.90;97844.00;;;;8451184;27;20239;-73
2022/01/11 19:04:52;;;;;;;23.13;12.20;;;;;0.90;97841.00;;;;8450342;27;20233;-72
2022/01/11 19:08:55;;;;;;;24.20;11.67;;;;;1.10;97848.00;;;;8451018;27;20230;-73
2022/01/11 19:13:01;;;;;;;25.73;11.87;;;;;1.20;97846.00;;;;8450475;28;20324;-73
2022/01/11 19:17:07;;;;;;;20.10;10.63;;;;;1.30;97856.00;;;;8450197;27;20246;-72
2022/01/11 19:21:10;;;;;;;21.30;11.30;;;;;1.40;97850.00;;;;8447688;27;20226;-71
2022/01/11 19:25:14;;;;;;;23.40;11.50;;;;;1.50;97851.00;;;;8450291;27;20234;-72
2022/01/11 19:29:20;;;;;;;24.40;12.03;;;;;1.50;97846.00;;;;8449789;28;20270;-73
2022/01/11 19:33:23;;;;;;;20.67;10.40;;;;;1.50;97846.00;;;;8449712;28;20236;-71
2022/01/11 19:37:27;;;;;;;20.37;10.60;;;;;1.50;97852.00;;;;8449173;27;20319;-72
2022/01/11 19:41:30;;;;;;;21.03;10.97;;;;;1.40;97843.00;;;;8449154;27;20311;-71
2022/01/11 19:45:35;;;;;;;22.97;11.00;;;;;1.30;97844.00;;;;8449845;28;20728;-71
2022/01/11 19:49:38;;;;;;;24.47;12.33;;;;;1.20;97851.00;;;;8448100;28;20260;-71
2022/01/11 19:53:42;;;;;;;26.50;11.80;;;;;1.10;97847.00;;;;8442370;27;20230;-70
2022/01/11 19:57:47;;;;;;;26.27;11.90;;;;;1.00;97845.00;;;;8450647;27;20319;-71
2022/01/11 20:01:53;;;;;;;24.97;12.40;;;;;0.90;97852.00;;;;8449100;27;20251;-70
2022/01/11 20:05:56;;;;;;;24.57;11.53;;;;;0.90;97858.00;;;;8415857;27;20225;-71
2022/01/11 20:10:00;;;;;;;19.13;9.80;;;;;0.90;97857.00;;;;8449881;28;20246;-72
2022/01/11 20:14:03;;;;;;;23.10;11.40;;;;;0.80;97858.00;;;;8449677;28;20343;-71
2022/01/11 20:18:09;;;;;;;24.90;12.23;;;;;0.70;97857.00;;;;8449979;28;20251;-72
2022/01/11 20:30:49;;;;;;;17.77;8.77;;;;;0.50;97857.00;;;;8448525;28;20225;-71
2022/01/11 20:34:56;;;;;;;25.00;12.07;;;;;0.40;97862.00;;;;8445100;28;20235;-71
2022/01/11 20:38:59;;;;;;;21.87;11.03;;;;;0.30;97858.00;;;;8438331;28;20697;-72
2022/01/11 20:43:02;;;;;;;28.60;12.47;;;;;0.20;97855.00;;;;8445926;27;20234;-72